Time;durP1;ratioP1;P1;durP2;ratioP2;P2;SDS_P1;SDS_P2;PMS_P1;PMS_P2;Temp;Humidity;BMP_temperature;BMP_pressure;BME280_temperature;BME280_humidity;BME280_pressure;Samples;Min_cycle;Max_cycle;Signal;HPM_P1;HPM_P2
2022/01/18 00:03:08;;;;;;;6.72;2.33;;;;;;;18.58;51.50;98416.41;10412285;28;20026;-21
2022/01/18 00:08:08;;;;;;;4.07;2.20;;;;;;;18.59;51.36;98413.03;10412644;28;20041;-21
2022/01/18 00:13:24;;;;;;;6.87;2.77;;;;;;;18.59;51.39;98402.91;10412946;28;20404;-21
2022/01/18 00:18:24;;;;;;;5.43;2.67;;;;;;;18.62;51.45;98408.91;10412740;28;20037;-21
2022/01/18 00:23:26;;;;;;;3.17;2.10;;;;;;;18.59;51.44;98392.75;10412778;28;20033;-21
2022/01/18 00:28:28;;;;;;;4.45;2.20;;;;;;;18.61;51.29;98391.09;10411291;28;20488;-20
2022/01/18 00:38:48;;;;;;;3.08;2.10;;;;;;;18.61;51.45;98391.09;10370355;28;20117;-20
2022/01/18 00:43:49;;;;;;;3.22;2.25;;;;;;;18.61;51.36;98378.41;10410063;28;20044;-21
2022/01/18 00:49:00;;;;;;;5.55;2.50;;;;;;;18.59;51.68;98372.47;10410226;28;20557;-22
2022/01/18 00:54:01;;;;;;;2.72;2.05;;;;;;;18.59;51.45;98382.59;10410756;28;20044;-21
2022/01/18 00:59:02;;;;;;;6.22;2.30;;;;;;;18.61;51.31;98381.81;10450559;28;20029;-21
2022/01/18 01:04:04;;;;;;;3.05;2.25;;;;;;;18.60;51.42;98376.72;10440112;28;20498;-21
2022/01/18 01:09:06;;;;;;;2.83;1.80;;;;;;;18.61;51.65;98374.22;10409314;28;20036;-21
2022/01/18 01:14:13;;;;;;;5.68;2.55;;;;;;;18.60;51.56;98380.09;10369268;28;20619;-21
2022/01/18 01:45:30;;;;;;;3.92;2.10;;;;;;;18.58;51.40;98393.56;10449406;28;20518;-22
2022/01/18 01:50:47;;;;;;;2.72;1.60;;;;;;;18.58;51.52;98401.19;10436596;28;20033;-21
2022/01/18 01:55:49;;;;;;;3.13;1.60;;;;;;;18.57;51.63;98399.47;10422458;28;20140;-21
2022/01/18 02:00:52;;;;;;;4.70;2.05;;;;;;;18.55;51.75;98390.94;10450237;28;20029;-21
2022/01/18 02:05:53;;;;;;;2.38;1.83;;;;;;;18.58;51.58;98391.03;10443295;28;20040;-21
2022/01/18 02:10:54;;;;;;;3.25;1.70;;;;;;;18.59;51.24;98385.13;10433251;28;20051;-21
2022/01/18 02:26:22;;;;;;;2.63;1.60;;;;;;;18.55;51.52;98371.50;10428521;28;20052;-21
2022/01/18 02:31:22;;;;;;;3.33;1.73;;;;;;;18.58;51.52;98363.13;10408162;28;20043;-21
2022/01/18 02:36:22;;;;;;;2.93;1.50;;;;;;;18.58;51.44;98363.13;10427116;28;20090;-21
2022/01/18 02:41:29;;;;;;;2.37;1.47;;;;;;;18.59;51.41;98363.16;10447682;28;20414;-21
2022/01/18 02:46:29;;;;;;;2.00;1.42;;;;;;;18.52;51.45;98362.97;10448649;28;20045;-21
2022/01/18 02:51:30;;;;;;;3.65;2.00;;;;;;;18.55;51.55;98365.56;10423904;28;20042;-21
2022/01/18 02:56:41;;;;;;;3.97;1.90;;;;;;;18.57;51.54;98363.94;10414283;28;20099;-21
2022/01/18 03:07:02;;;;;;;1.80;1.50;;;;;;;18.55;51.61;98368.09;10410271;28;20530;-21
2022/01/18 03:12:04;;;;;;;2.90;1.90;;;;;;;18.54;51.37;98379.06;10415019;28;20044;-22
2022/01/18 03:17:05;;;;;;;2.58;1.52;;;;;;;18.58;51.37;98375.81;10414653;28;20638;-21
2022/01/18 03:22:06;;;;;;;3.58;1.95;;;;;;;18.56;51.49;98369.81;10444148;28;20028;-21
2022/01/18 03:32:26;;;;;;;3.58;1.40;;;;;;;18.57;51.46;98369.88;10452330;28;20072;-21
2022/01/18 03:37:26;;;;;;;1.65;1.35;;;;;;;18.53;51.58;98365.56;10441889;28;20440;-21
2022/01/18 03:47:31;;;;;;;3.22;1.33;;;;;;;18.52;51.67;98361.31;10454462;28;20075;-21
2022/01/18 03:52:32;;;;;;;1.77;1.52;;;;;;;18.53;51.67;98357.06;10414285;28;20116;-21
2022/01/18 03:57:33;;;;;;;3.03;2.00;;;;;;;18.51;51.68;98362.09;10441014;28;20454;-21
2022/01/18 04:02:33;;;;;;;2.65;1.75;;;;;;;18.52;51.70;98357.88;10450557;28;20530;-21
2022/01/18 04:07:34;;;;;;;2.33;1.52;;;;;;;18.53;51.54;98357.94;10411783;28;20052;-21
2022/01/18 04:12:35;;;;;;;3.88;1.80;;;;;;;18.53;51.56;98354.53;10440859;28;20067;-21
2022/01/18 04:28:08;;;;;;;1.90;1.25;;;;;;;18.50;51.75;98351.94;10418952;28;20487;-21
2022/01/18 04:33:08;;;;;;;3.50;1.48;;;;;;;18.50;51.68;98351.94;10412060;28;20041;-21
2022/01/18 04:38:09;;;;;;;1.63;1.23;;;;;;;18.53;51.65;98342.72;10411103;28;20495;-21
2022/01/18 04:43:23;;;;;;;3.15;1.48;;;;;;;18.54;51.57;98343.56;10437479;28;20026;-21
2022/01/18 04:48:35;;;;;;;3.85;1.55;;;;;;;18.56;51.62;98347.00;10410858;28;20095;-21
2022/01/18 04:53:39;;;;;;;2.25;1.50;;;;;;;18.58;51.64;98345.38;10391395;28;20037;-21
2022/01/18 04:58:39;;;;;;;1.90;1.48;;;;;;;18.58;51.76;98350.44;10411093;28;20032;-22
2022/01/18 05:03:40;;;;;;;3.60;2.20;;;;;;;18.53;51.43;98337.66;10410801;28;20111;-23
2022/01/18 05:08:40;;;;;;;2.30;1.50;;;;;;;18.65;51.43;98347.22;10449478;28;20295;-23
2022/01/18 05:23:55;;;;;;;1.58;1.02;;;;;;;18.59;51.10;98347.94;10433727;28;20039;-21
2022/01/18 05:28:59;;;;;;;3.60;1.23;;;;;;;18.57;50.82;98346.19;10399738;28;20496;-21
2022/01/18 05:34:00;;;;;;;2.88;1.70;;;;;;;18.41;51.19;98326.34;10397981;28;20065;-21
2022/01/18 05:39:00;;;;;;;1.48;1.00;;;;;;;18.46;50.35;98324.75;10402278;28;20037;-22
2022/01/18 05:44:00;;;;;;;2.10;1.00;;;;;;;18.55;49.54;98341.06;10409579;28;20048;-21
2022/01/18 05:49:02;;;;;;;1.90;1.30;;;;;;;17.92;44.51;98339.31;10425334;28;20512;-21
2022/01/18 05:54:03;;;;;;;2.40;1.25;;;;;;;15.17;42.29;98343.41;10404496;28;20033;-21
2022/01/18 05:59:06;;;;;;;1.55;1.42;;;;;;;14.64;41.56;98349.63;10403365;28;20033;-20
2022/01/18 06:04:17;;;;;;;2.65;1.65;;;;;;;16.98;46.13;98323.81;10403731;28;20064;-20
2022/01/18 06:09:19;;;;;;;2.42;2.22;;;;;;;17.78;44.97;98349.88;10411288;28;20039;-20
2022/01/18 06:14:19;;;;;;;3.80;1.23;;;;;;;18.03;45.99;98342.16;10448807;28;20029;-20
2022/01/18 06:19:19;;;;;;;7.33;2.03;;;;;;;18.15;46.62;98343.34;10432931;28;20284;-20
2022/01/18 06:24:20;;;;;;;3.70;1.57;;;;;;;18.22;47.12;98341.81;10408575;28;20287;-21
2022/01/18 06:29:21;;;;;;;3.75;2.03;;;;;;;18.32;47.79;98336.25;10411445;28;20068;-20
2022/01/18 06:34:21;;;;;;;11.27;1.73;;;;;;;18.34;48.07;98344.75;10416551;28;20079;-20
2022/01/18 06:39:22;;;;;;;9.83;1.50;;;;;;;17.95;43.92;98339.44;10417643;28;20025;-20
2022/01/18 06:44:24;;;;;;;3.15;1.50;;;;;;;18.26;47.21;98353.78;10457297;28;20051;-20
2022/01/18 06:49:24;;;;;;;5.05;1.88;;;;;;;18.32;47.67;98361.59;10454945;28;20555;-20
2022/01/18 06:54:24;;;;;;;5.25;1.42;;;;;;;18.36;47.79;98368.44;10454880;28;20124;-20
2022/01/18 06:59:25;;;;;;;5.73;1.33;;;;;;;18.39;47.90;98361.78;10456251;28;20032;-21
2022/01/18 07:04:25;;;;;;;5.10;1.10;;;;;;;18.38;47.89;98366.81;10455958;28;20044;-20
2022/01/18 07:09:26;;;;;;;4.40;1.45;;;;;;;18.38;48.16;98369.34;10452120;28;20678;-20
2022/01/18 07:14:27;;;;;;;2.90;1.20;;;;;;;18.36;48.14;98359.19;10415567;28;20037;-20
2022/01/18 07:19:27;;;;;;;3.50;1.38;;;;;;;18.37;48.44;98353.28;10424785;28;20029;-20
2022/01/18 07:29:38;;;;;;;3.20;0.82;;;;;;;18.39;48.62;98358.38;10414353;28;20605;-21
2022/01/18 07:34:57;;;;;;;2.88;1.13;;;;;;;18.39;48.35;98356.72;10423167;28;20035;-22
2022/01/18 07:39:58;;;;;;;4.15;1.55;;;;;;;18.39;48.40;98360.91;10448154;28;20061;-21
2022/01/18 07:44:58;;;;;;;3.47;1.23;;;;;;;18.39;48.37;98363.44;10417092;28;20053;-21
2022/01/18 07:49:59;;;;;;;3.22;1.17;;;;;;;18.38;48.60;98362.59;10441022;28;20293;-20
2022/01/18 07:54:59;;;;;;;1.88;0.90;;;;;;;18.38;48.67;98359.19;10455784;28;20091;-21
2022/01/18 07:59:59;;;;;;;1.20;0.80;;;;;;;18.39;48.72;98363.44;10456279;28;20036;-21
2022/01/18 08:05:00;;;;;;;3.00;1.48;;;;;;;18.40;48.73;98375.34;10455769;28;20119;-21
2022/01/18 08:10:01;;;;;;;1.10;1.00;;;;;;;18.38;48.90;98371.88;10447798;28;20037;-20
2022/01/18 08:15:12;;;;;;;1.45;0.65;;;;;;;18.41;48.89;98366.91;10415010;28;20565;-21
2022/01/18 08:20:13;;;;;;;1.48;0.77;;;;;;;18.40;48.93;98370.25;10429962;28;20192;-20
2022/01/18 08:25:16;;;;;;;2.40;1.20;;;;;;;18.39;48.94;98373.59;10456174;28;20028;-21
2022/01/18 08:30:18;;;;;;;1.85;0.98;;;;;;;18.39;49.12;98378.66;10453209;28;20037;-20
2022/01/18 08:35:18;;;;;;;1.50;0.75;;;;;;;18.38;48.99;98382.03;10439393;28;20566;-21
2022/01/18 08:40:19;;;;;;;1.43;1.00;;;;;;;18.40;48.93;98375.34;10451593;28;20039;-21
2022/01/18 08:45:19;;;;;;;1.00;0.70;;;;;;;18.36;49.31;98363.38;10452305;28;20291;-20
2022/01/18 08:50:20;;;;;;;3.85;1.20;;;;;;;18.37;49.17;98365.97;10434831;28;20518;-20
2022/01/18 08:55:21;;;;;;;0.77;0.70;;;;;;;18.39;49.20;98363.44;10420513;28;20052;-20
2022/01/18 09:00:21;;;;;;;1.38;0.85;;;;;;;18.38;49.26;98366.81;10451326;28;20124;-21
2022/01/18 09:05:23;;;;;;;0.90;0.60;;;;;;;18.39;49.79;98363.44;10450289;28;20147;-21
2022/01/18 09:10:26;;;;;;;1.98;0.98;;;;;;;18.42;49.00;98363.56;10439133;28;20034;-21
2022/01/18 09:15:26;;;;;;;2.50;1.13;;;;;;;18.34;49.00;98350.66;10410367;28;20040;-21
2022/01/18 09:20:27;;;;;;;1.20;0.70;;;;;;;18.42;49.34;98363.56;10410413;28;20040;-21
2022/01/18 09:25:30;;;;;;;1.17;0.80;;;;;;;18.40;49.37;98360.13;10420355;28;20060;-21
2022/01/18 09:30:32;;;;;;;1.98;1.02;;;;;;;18.40;49.36;98348.28;10450487;28;20455;-21
2022/01/18 09:35:35;;;;;;;0.85;0.75;;;;;;;18.39;49.45;98356.72;10424469;28;20049;-21
2022/01/18 09:40:38;;;;;;;0.95;0.70;;;;;;;18.39;49.41;98355.84;10420686;28;20395;-21
2022/01/18 09:45:41;;;;;;;1.17;0.90;;;;;;;18.35;49.46;98349.00;10450594;28;20042;-20
2022/01/18 09:50:45;;;;;;;1.55;0.80;;;;;;;18.42;49.36;98345.81;10429173;28;20037;-21
2022/01/18 09:55:48;;;;;;;1.85;0.85;;;;;;;18.42;49.34;98358.47;10422610;28;20048;-21
2022/01/18 10:00:50;;;;;;;1.38;0.65;;;;;;;18.40;49.74;98360.97;10449938;28;20067;-21
2022/01/18 10:05:51;;;;;;;0.65;0.47;;;;;;;18.27;49.31;98327.59;10428339;28;20133;-21
2022/01/18 10:10:56;;;;;;;2.03;1.00;;;;;;;18.44;49.39;98347.56;10423216;28;20033;-21
2022/01/18 10:16:11;;;;;;;0.93;0.60;;;;;;;18.43;49.28;98339.91;10449819;28;20548;-21
2022/01/18 10:21:34;;;;;;;0.70;0.57;;;;;;;18.40;49.54;98337.31;10411683;28;20180;-20
2022/01/18 10:26:39;;;;;;;1.10;0.68;;;;;;;18.41;49.25;98336.47;10428471;28;20098;-21
2022/01/18 10:31:56;;;;;;;0.65;0.55;;;;;;;18.41;49.47;98332.25;10449385;28;20483;-21
2022/01/18 10:37:19;;;;;;;1.10;0.80;;;;;;;18.42;49.36;98333.13;10411956;28;20033;-21
2022/01/18 10:42:30;;;;;;;0.93;0.50;;;;;;;18.46;49.39;98329.81;10433671;28;20209;-20
2022/01/18 10:47:32;;;;;;;1.85;0.82;;;;;;;18.44;49.25;98318.78;10449758;28;20033;-21
2022/01/18 10:52:33;;;;;;;0.80;0.60;;;;;;;18.44;49.45;98322.19;10415883;28;20041;-21
2022/01/18 10:57:39;;;;;;;0.50;0.50;;;;;;;18.47;49.35;98322.28;10436050;28;20078;-21
2022/01/18 11:02:42;;;;;;;0.85;0.70;;;;;;;18.46;49.28;98319.69;10439271;28;20080;-20
2022/01/18 11:07:44;;;;;;;0.55;0.50;;;;;;;18.46;49.25;98315.47;10407254;28;20033;-21
2022/01/18 11:12:57;;;;;;;0.68;0.57;;;;;;;18.38;49.19;98298.34;10407817;28;20216;-20
2022/01/18 11:18:02;;;;;;;1.25;1.02;;;;;;;18.49;49.21;98300.31;10414096;28;20071;-21
2022/01/18 11:23:06;;;;;;;0.60;0.50;;;;;;;18.52;49.29;98307.16;10414563;28;20049;-21
2022/01/18 11:28:10;;;;;;;1.15;0.63;;;;;;;18.52;49.33;98309.69;10414395;28;20042;-20
2022/01/18 11:33:13;;;;;;;1.27;0.57;;;;;;;18.52;49.28;98299.56;10415474;28;20181;-20
2022/01/18 11:38:42;;;;;;;4.50;1.40;;;;;;;18.46;47.54;98300.25;10413881;28;20373;-21
2022/01/18 11:43:45;;;;;;;4.15;0.85;;;;;;;18.44;49.04;98290.91;10451304;28;20048;-20
2022/01/18 11:48:48;;;;;;;1.08;0.70;;;;;;;18.49;49.77;98289.34;10453042;28;20094;-20
2022/01/18 11:59:12;;;;;;;4.35;1.30;;;;;;;18.54;50.58;98283.56;10413834;28;20071;-20
2022/01/18 12:04:12;;;;;;;6.38;1.35;;;;;;;18.55;50.87;98281.88;10415898;28;20450;-20
2022/01/18 12:09:38;;;;;;;6.15;1.30;;;;;;;18.56;51.34;98278.50;10451213;28;20082;-20
2022/01/18 12:14:43;;;;;;;6.53;1.30;;;;;;;18.59;51.23;98265.91;10430828;28;20049;-21
2022/01/18 12:19:45;;;;;;;4.88;1.20;;;;;;;18.55;51.42;98253.97;10452920;28;20036;-20
2022/01/18 12:24:47;;;;;;;2.28;1.08;;;;;;;18.59;51.36;98253.22;10419684;28;20059;-20
2022/01/18 12:30:38;;;;;;;6.80;1.30;;;;;;;18.55;51.79;98244.69;10452411;28;20560;-20
2022/01/18 12:35:38;;;;;;;8.30;1.20;;;;;;;18.54;51.55;98231.97;10438443;28;20044;-20
2022/01/18 12:40:44;;;;;;;8.33;1.30;;;;;;;18.51;51.98;98239.50;10438170;28;20040;-21
2022/01/18 12:45:46;;;;;;;6.82;1.20;;;;;;;18.54;51.55;98235.38;10412622;28;20288;-21
2022/01/18 12:50:52;;;;;;;7.22;1.33;;;;;;;18.56;52.06;98235.38;10440902;28;20495;-21
2022/01/18 12:55:57;;;;;;;5.13;1.00;;;;;;;18.52;52.25;98228.53;10450801;28;20032;-20
2022/01/18 13:01:00;;;;;;;9.27;1.20;;;;;;;18.55;52.02;98233.66;10451823;28;20056;-21
2022/01/18 13:06:05;;;;;;;4.32;1.13;;;;;;;18.59;51.39;98233.78;10427440;28;20453;-20
2022/01/18 13:11:06;;;;;;;5.43;1.10;;;;;;;18.57;52.35;98232.06;10426541;28;20111;-20
2022/01/18 13:26:51;;;;;;;9.70;1.90;;;;;;;18.50;51.87;98220.03;10430569;28;20159;-21
2022/01/18 13:32:02;;;;;;;2.90;1.15;;;;;;;18.49;52.02;98223.41;10450977;28;20033;-21
2022/01/18 13:37:05;;;;;;;8.93;1.88;;;;;;;18.51;51.71;98220.06;10436047;28;20531;-20
2022/01/18 13:42:09;;;;;;;4.18;1.10;;;;;;;18.54;51.80;98224.34;10449610;28;20029;-20
2022/01/18 13:47:18;;;;;;;2.20;0.90;;;;;;;18.54;51.36;98214.19;10450342;28;20491;-21
2022/01/18 13:52:18;;;;;;;4.72;1.33;;;;;;;18.48;51.52;98206.44;10448771;28;20090;-20
2022/01/18 13:57:21;;;;;;;7.53;1.93;;;;;;;18.51;51.62;98209.06;10422611;28;20500;-21
2022/01/18 14:02:23;;;;;;;3.00;0.90;;;;;;;18.47;51.85;98207.25;10408866;28;20116;-21
2022/01/18 14:07:28;;;;;;;3.70;1.17;;;;;;;18.49;51.56;98200.56;10408886;28;20510;-21
2022/01/18 14:12:33;;;;;;;18.25;1.88;;;;;;;18.48;51.57;98196.28;10435677;28;20041;-21
2022/01/18 14:17:34;;;;;;;3.72;1.08;;;;;;;18.51;51.55;98201.47;10450137;28;20124;-21
2022/01/18 14:22:36;;;;;;;1.33;0.83;;;;;;;18.54;51.21;98206.59;10417243;28;20480;-21
2022/01/18 14:27:41;;;;;;;1.98;1.00;;;;;;;18.51;51.74;98199.75;10436717;28;20040;-21
2022/01/18 14:32:43;;;;;;;2.05;1.02;;;;;;;18.51;51.40;98198.91;10441604;28;20037;-21
2022/01/18 14:37:49;;;;;;;2.33;1.17;;;;;;;18.52;51.41;98196.44;10408700;28;20037;-21
2022/01/18 14:42:56;;;;;;;;;;;;;;;18.49;51.57;98193.81;10438778;28;20079;-21
2022/01/18 14:47:57;;;;;;;1.43;0.70;;;;;;;18.48;51.57;98186.16;10448272;28;20370;-21
2022/01/18 14:52:58;;;;;;;5.05;1.00;;;;;;;18.42;51.39;98173.34;10415887;28;20044;-21
2022/01/18 14:57:59;;;;;;;2.28;0.80;;;;;;;18.51;51.42;98181.16;10447298;28;20040;-20
2022/01/18 15:03:00;;;;;;;1.92;0.70;;;;;;;18.48;51.76;98176.88;10447867;28;20469;-21
2022/01/18 15:08:03;;;;;;;1.52;0.77;;;;;;;18.49;51.67;98167.59;10415579;28;20103;-21
2022/01/18 15:13:07;;;;;;;1.40;0.63;;;;;;;18.51;51.62;98156.66;10415042;28;20038;-21
2022/01/18 15:18:08;;;;;;;2.83;0.82;;;;;;;18.50;51.72;98154.09;10421785;28;20029;-21
2022/01/18 15:23:08;;;;;;;2.78;0.68;;;;;;;18.50;51.81;98154.09;10456001;28;20033;-21
2022/01/18 15:28:09;;;;;;;1.53;0.70;;;;;;;18.50;51.66;98154.09;10420729;28;20408;-21
2022/01/18 15:33:10;;;;;;;2.33;0.60;;;;;;;18.51;51.59;98156.66;10414445;28;20447;-21
2022/01/18 15:38:11;;;;;;;1.83;0.73;;;;;;;18.49;51.59;98152.38;10413891;28;20064;-21
2022/01/18 15:43:11;;;;;;;1.50;0.70;;;;;;;18.50;51.66;98151.56;10447915;28;20029;-21
2022/01/18 15:48:12;;;;;;;0.82;0.60;;;;;;;18.46;51.90;98158.25;10440505;28;20030;-21
2022/01/18 15:53:12;;;;;;;1.97;0.80;;;;;;;18.49;51.63;98167.59;10413929;28;20033;-21
2022/01/18 15:58:14;;;;;;;1.15;0.73;;;;;;;18.52;51.44;98172.72;10446277;28;20049;-21
2022/01/18 16:03:16;;;;;;;1.65;0.90;;;;;;;18.50;51.59;98169.31;10451480;28;20033;-21
2022/01/18 16:08:17;;;;;;;1.63;0.60;;;;;;;18.56;51.29;98169.44;10413256;28;20044;-21
2022/01/18 16:13:17;;;;;;;1.87;0.77;;;;;;;18.49;51.84;98168.44;10447027;28;20041;-20
2022/01/18 16:18:17;;;;;;;2.63;1.00;;;;;;;18.52;51.67;98160.94;10453765;28;20491;-21
2022/01/18 16:23:18;;;;;;;1.47;1.10;;;;;;;18.53;51.56;98174.44;10452015;28;20295;-21
2022/01/18 16:28:18;;;;;;;0.90;0.80;;;;;;;18.51;51.61;98171.03;10451961;28;20037;-21
2022/01/18 16:33:19;;;;;;;1.03;0.50;;;;;;;18.49;51.45;98158.28;10443108;28;20094;-21
2022/01/18 16:38:20;;;;;;;1.20;0.73;;;;;;;18.53;51.33;98164.31;10411526;28;20358;-21
2022/01/18 16:43:20;;;;;;;2.23;0.90;;;;;;;18.52;51.36;98175.28;10411307;28;20039;-21
2022/01/18 16:48:20;;;;;;;1.40;0.70;;;;;;;18.52;51.29;98177.81;10410920;28;20666;-21
2022/01/18 16:53:21;;;;;;;1.70;1.10;;;;;;;18.53;51.52;98179.53;10452142;28;20550;-21
2022/01/18 16:58:22;;;;;;;0.82;0.68;;;;;;;18.56;51.31;98164.34;10450287;28;20025;-21
2022/01/18 17:03:22;;;;;;;1.70;0.70;;;;;;;18.54;51.49;98171.94;10450540;28;20086;-21
2022/01/18 17:08:22;;;;;;;0.60;0.50;;;;;;;18.53;51.32;98176.97;10452109;28;20120;-21
2022/01/18 17:13:23;;;;;;;1.73;0.60;;;;;;;18.51;51.24;98173.56;10450348;28;20389;-21
2022/01/18 17:18:23;;;;;;;0.80;0.60;;;;;;;18.52;51.38;98191.34;10452059;28;20033;-21
2022/01/18 17:23:24;;;;;;;1.20;0.60;;;;;;;18.54;51.24;98191.38;10414226;28;20112;-21
2022/01/18 17:28:25;;;;;;;1.60;0.65;;;;;;;18.55;51.25;98188.88;10444179;28;20299;-21
2022/01/18 17:33:25;;;;;;;0.47;0.47;;;;;;;18.55;51.35;98193.09;10445055;28;20053;-21
2022/01/18 17:38:26;;;;;;;0.70;0.43;;;;;;;18.55;50.64;98195.63;10442326;28;20510;-24
2022/01/18 17:43:26;;;;;;;0.60;0.50;;;;;;;18.53;51.54;98203.22;10410154;28;20387;-21
2022/01/18 17:48:26;;;;;;;1.98;0.77;;;;;;;18.52;51.75;98195.56;10422261;28;20856;-21
2022/01/18 17:53:27;;;;;;;1.40;0.70;;;;;;;18.54;51.52;98188.84;10449051;28;20039;-21
2022/01/18 17:58:27;;;;;;;2.03;0.77;;;;;;;18.54;52.10;98187.16;10409251;28;20037;-21
2022/01/18 18:03:28;;;;;;;0.77;0.77;;;;;;;18.58;52.10;98167.81;10406906;28;20082;-23
2022/01/18 18:08:30;;;;;;;1.88;1.08;;;;;;;18.59;52.05;98170.34;10444617;28;20040;-21
2022/01/18 18:13:30;;;;;;;2.60;0.93;;;;;;;18.56;51.92;98164.34;10415858;28;20042;-21
2022/01/18 18:18:31;;;;;;;1.30;0.80;;;;;;;18.59;51.85;98165.28;10406896;28;20056;-21
2022/01/18 18:23:32;;;;;;;1.20;0.80;;;;;;;18.55;52.00;98158.44;10439409;28;20290;-22
2022/01/18 18:28:32;;;;;;;0.40;0.40;;;;;;;18.53;51.89;98159.22;10420151;28;20423;-21
2022/01/18 18:33:36;;;;;;;1.43;0.83;;;;;;;18.46;51.79;98132.00;10420865;28;20299;-21
2022/01/18 18:38:43;;;;;;;1.98;0.63;;;;;;;18.51;51.77;98146.50;10436376;28;20503;-21
2022/01/18 18:44:07;;;;;;;2.45;0.63;;;;;;;18.55;51.58;98153.38;10453459;28;20060;-21
2022/01/18 18:49:04;;;;;;;2.15;0.98;;;;;;;18.56;51.27;98156.75;10441393;28;20037;-21
2022/01/18 18:54:05;;;;;;;3.03;0.82;;;;;;;18.54;51.64;98153.31;10415463;28;20048;-21
2022/01/18 19:04:08;;;;;;;5.65;0.95;;;;;;;18.59;51.20;98113.72;10407309;28;20123;-21
2022/01/18 19:09:09;;;;;;;3.10;0.90;;;;;;;18.61;51.07;98101.91;10390359;28;20033;-21
2022/01/18 19:14:14;;;;;;;1.10;0.75;;;;;;;18.63;50.83;98138.31;10372550;28;20036;-21
2022/01/18 19:19:14;;;;;;;1.33;0.80;;;;;;;18.61;50.91;98145.91;10383875;28;20033;-21
2022/01/18 19:24:15;;;;;;;1.20;0.80;;;;;;;18.63;50.98;98151.88;10409807;28;20507;-22
2022/01/18 19:29:15;;;;;;;3.87;1.30;;;;;;;18.30;45.67;98129.94;10429280;28;20517;-20
2022/01/18 19:34:17;;;;;;;5.70;1.80;;;;;;;18.02;44.21;98145.31;10414536;28;20311;-22
2022/01/18 19:39:18;;;;;;;2.92;1.60;;;;;;;18.37;46.64;98147.88;10402228;28;20033;-21
2022/01/18 19:44:18;;;;;;;2.53;1.20;;;;;;;18.48;49.46;98145.56;10408204;28;20055;-22
2022/01/18 19:49:19;;;;;;;1.63;0.80;;;;;;;18.54;49.94;98141.53;10410045;28;20396;-21
2022/01/18 19:54:19;;;;;;;6.13;1.30;;;;;;;18.53;50.34;98137.28;10409434;28;20140;-22
2022/01/18 19:59:19;;;;;;;3.17;1.07;;;;;;;18.54;50.48;98141.53;10404323;28;20045;-21
2022/01/18 20:04:20;;;;;;;3.13;1.10;;;;;;;18.59;50.48;98128.94;10413446;28;20037;-22
2022/01/18 20:09:20;;;;;;;2.73;1.03;;;;;;;18.55;50.34;98120.41;10414217;28;20047;-21
2022/01/18 20:14:20;;;;;;;2.93;1.37;;;;;;;18.60;50.50;98116.25;10405209;28;20491;-21
2022/01/18 20:19:21;;;;;;;4.13;1.33;;;;;;;18.64;50.16;98122.25;10405628;28;20292;-21
2022/01/18 20:24:24;;;;;;;2.97;1.10;;;;;;;18.67;50.26;98127.41;10374627;28;20293;-21
2022/01/18 20:29:24;;;;;;;9.18;1.73;;;;;;;18.67;50.10;98112.19;10412272;28;20046;-21
2022/01/18 20:34:24;;;;;;;6.53;2.20;;;;;;;18.66;50.19;98106.25;10423496;28;20050;-22
2022/01/18 20:39:30;;;;;;;12.60;2.87;;;;;;;18.67;49.98;98107.13;10395438;28;20303;-22
2022/01/18 20:44:30;;;;;;;8.95;2.67;;;;;;;18.65;49.35;98106.22;10406790;28;20052;-22
2022/01/18 20:49:31;;;;;;;9.70;3.23;;;;;;;18.71;48.93;98119.03;10410869;28;20022;-21
2022/01/18 20:54:32;;;;;;;4.63;2.03;;;;;;;18.74;48.89;98096.28;10410195;28;20781;-21
2022/01/18 20:59:33;;;;;;;6.18;2.47;;;;;;;18.77;49.28;98088.72;10407958;28;20029;-21
2022/01/18 21:04:33;;;;;;;5.45;1.73;;;;;;;18.77;49.52;98081.94;10408889;28;20044;-21
2022/01/18 21:09:34;;;;;;;4.30;1.90;;;;;;;18.76;49.76;98057.41;10406795;28;20201;-21
2022/01/18 21:19:36;;;;;;;4.77;1.30;;;;;;;18.76;49.86;98018.50;10414799;28;20025;-21
2022/01/18 21:24:36;;;;;;;2.53;1.77;;;;;;;18.75;50.02;98009.19;10413425;28;20032;-21
2022/01/18 21:29:36;;;;;;;7.00;1.60;;;;;;;18.71;50.45;98033.66;10450916;28;20043;-21
2022/01/18 21:34:38;;;;;;;4.95;1.50;;;;;;;18.74;50.24;98053.16;10433022;28;20033;-21
2022/01/18 21:39:38;;;;;;;3.35;1.15;;;;;;;18.74;50.25;98058.22;10409567;28;20057;-21
2022/01/18 21:44:39;;;;;;;5.07;1.33;;;;;;;18.73;50.50;98084.41;10409170;28;20562;-21
2022/01/18 21:49:39;;;;;;;5.37;1.47;;;;;;;18.72;50.41;98080.16;10422721;28;20378;-21
2022/01/18 21:54:39;;;;;;;5.20;1.57;;;;;;;18.71;50.69;98083.50;10448887;28;20083;-21
2022/01/18 21:59:41;;;;;;;4.10;1.60;;;;;;;18.70;50.67;98079.28;10449065;28;20111;-21
2022/01/18 22:04:43;;;;;;;2.97;1.20;;;;;;;18.70;50.65;98086.88;10443656;28;20395;-21
2022/01/18 22:09:43;;;;;;;2.92;1.33;;;;;;;18.71;50.64;98083.50;10412158;28;20486;-21
2022/01/18 22:14:44;;;;;;;6.70;1.63;;;;;;;18.71;50.72;98096.19;10437234;28;20029;-21
2022/01/18 22:19:44;;;;;;;3.33;1.77;;;;;;;18.71;50.95;98078.44;10408288;28;20350;-21
2022/01/18 22:24:44;;;;;;;7.10;1.67;;;;;;;18.68;51.13;98079.22;10428807;28;20120;-22
2022/01/18 22:29:45;;;;;;;4.30;1.20;;;;;;;18.72;50.81;98075.06;10408251;28;20054;-21
2022/01/18 22:34:45;;;;;;;2.85;1.45;;;;;;;18.72;50.88;98067.47;10427207;28;20399;-21
2022/01/18 22:39:46;;;;;;;5.65;1.63;;;;;;;18.71;51.06;98069.16;10442587;28;20030;-21
2022/01/18 22:44:47;;;;;;;2.72;1.42;;;;;;;18.70;50.95;98066.59;10408911;28;20338;-21
2022/01/18 22:49:47;;;;;;;2.20;1.48;;;;;;;18.70;50.96;98051.38;10408216;28;20563;-21
2022/01/18 22:54:48;;;;;;;2.00;1.00;;;;;;;18.70;50.99;98048.81;10412491;28;20029;-21
2022/01/18 22:59:49;;;;;;;3.70;1.50;;;;;;;18.66;51.19;98034.38;10448724;28;20032;-21
2022/01/18 23:04:50;;;;;;;2.88;1.38;;;;;;;18.68;50.80;98027.66;10423670;28;20033;-21
2022/01/18 23:09:50;;;;;;;1.98;1.35;;;;;;;18.72;51.19;98040.44;10408375;28;20037;-20
2022/01/18 23:14:50;;;;;;;3.37;1.23;;;;;;;18.66;51.18;98034.38;10415596;28;20029;-21
2022/01/18 23:19:51;;;;;;;4.60;1.20;;;;;;;18.72;50.95;98052.25;10414730;28;20033;-21
2022/01/18 23:24:51;;;;;;;1.87;1.13;;;;;;;18.72;51.03;98052.25;10419994;28;20306;-21
2022/01/18 23:29:54;;;;;;;1.88;1.17;;;;;;;18.73;50.90;98053.94;10455533;28;20098;-20
2022/01/18 23:34:54;;;;;;;1.42;1.20;;;;;;;18.72;50.86;98045.50;10452876;28;20111;-20
2022/01/18 23:40:20;;;;;;;1.38;1.00;;;;;;;18.72;50.89;98049.72;10453878;28;20108;-21
2022/01/18 23:45:18;;;;;;;1.83;0.93;;;;;;;18.72;50.95;98044.63;10454806;28;20068;-21
2022/01/18 23:50:19;;;;;;;1.88;1.15;;;;;;;18.73;50.91;98046.34;10453678;28;20495;-21
2022/01/18 23:55:20;;;;;;;2.85;1.10;;;;;;;18.73;51.06;98056.50;10452728;28;20447;-21
